createdAt,value
2022-12-28T00:01:54.427Z,0.84
2022-12-28T00:04:22.752Z,0.99
2022-12-28T00:06:50.908Z,0.54
2022-12-28T00:09:18.963Z,0.83
2022-12-28T00:11:47.325Z,0.51
2022-12-28T00:14:15.389Z,0.18
2022-12-28T00:16:43.931Z,0.01
2022-12-28T00:19:14.693Z,-0.15
2022-12-28T00:21:44.139Z,-0.13
2022-12-28T00:24:19.324Z,0.52
2022-12-28T00:26:47.308Z,0.30
2022-12-28T00:29:16.245Z,-0.05
2022-12-28T00:31:45.938Z,0.46
2022-12-28T00:34:14.800Z,0.32
2022-12-28T00:37:10.477Z,0.50
2022-12-28T00:39:31.354Z,0.50
2022-12-28T00:42:00.229Z,0.26
2022-12-28T00:44:28.929Z,0.32
2022-12-28T00:46:56.876Z,0.38
2022-12-28T00:49:25.214Z,0.51
2022-12-28T00:51:54.119Z,0.23
2022-12-28T00:54:23.801Z,0.09
2022-12-28T00:56:52.094Z,0.80
2022-12-28T00:59:20.102Z,1.14
2022-12-28T01:01:48.179Z,1.61
2022-12-28T01:04:16.504Z,1.48
2022-12-28T01:06:44.435Z,1.31
2022-12-28T01:09:12.351Z,1.25
2022-12-28T01:11:40.647Z,1.82
2022-12-28T01:14:08.610Z,1.66
2022-12-28T01:16:37.106Z,1.68
2022-12-28T01:19:07.317Z,1.74
2022-12-28T01:21:36.578Z,1.83
2022-12-28T01:24:05.932Z,1.57
2022-12-28T01:26:34.852Z,1.31
2022-12-28T01:29:02.887Z,1.63
2022-12-28T01:31:33.210Z,1.59
2022-12-28T01:34:02.822Z,1.62
2022-12-28T01:36:32.729Z,1.41
2022-12-28T01:39:03.951Z,1.46
2022-12-28T01:41:36.690Z,0.45
2022-12-28T01:44:05.381Z,0.77
2022-12-28T01:46:50.359Z,0.86
2022-12-28T01:49:24.330Z,0.88
2022-12-28T01:52:14.197Z,1.12
2022-12-28T01:54:51.749Z,2.15
2022-12-28T01:57:23.099Z,2.06
2022-12-28T01:59:55.045Z,1.98
2022-12-28T02:02:23.962Z,1.13
2022-12-28T02:04:53.871Z,1.24
2022-12-28T02:07:48.149Z,1.12
2022-12-28T02:10:41.475Z,0.87
2022-12-28T02:13:05.902Z,1.20
2022-12-28T02:15:34.247Z,0.77
2022-12-28T02:18:02.448Z,0.67
2022-12-28T02:20:44.092Z,0.56
2022-12-28T02:23:24.452Z,0.37
2022-12-28T02:26:28.519Z,-0.01
2022-12-28T02:29:26.011Z,-0.12
2022-12-28T02:32:12.888Z,0.20
2022-12-28T02:34:46.891Z,-0.45
2022-12-28T02:37:29.448Z,-0.63
2022-12-28T02:40:03.879Z,-0.38
2022-12-28T02:42:32.029Z,0.51
2022-12-28T02:45:19.068Z,0.42
2022-12-28T02:48:05.876Z,0.47
2022-12-28T02:50:46.259Z,-0.06
2022-12-28T02:53:26.386Z,-0.01
2022-12-28T02:56:42.830Z,0.22
2022-12-28T02:59:28.279Z,-0.28
2022-12-28T03:02:32.987Z,0.17
2022-12-28T03:05:58.268Z,-0.09
2022-12-28T03:08:37.961Z,0.29
2022-12-28T03:11:11.157Z,0.16
2022-12-28T03:13:52.820Z,0.02
2022-12-28T03:16:20.920Z,-0.80
2022-12-28T03:19:27.722Z,-0.29
2022-12-28T03:22:16.155Z,-0.57
2022-12-28T03:25:04.350Z,-0.08
2022-12-28T03:27:51.978Z,-0.19
2022-12-28T03:30:40.152Z,-0.53
2022-12-28T03:33:11.170Z,-0.46
2022-12-28T03:36:20.867Z,-0.67
2022-12-28T03:39:21.607Z,-0.37
2022-12-28T03:42:19.177Z,-0.37
2022-12-28T03:44:54.268Z,-0.51
2022-12-28T03:47:25.450Z,-0.29
2022-12-28T03:49:53.378Z,-0.65
2022-12-28T03:52:21.628Z,-0.32
2022-12-28T03:54:49.952Z,-0.47
2022-12-28T03:57:19.869Z,-0.61
2022-12-28T03:59:48.887Z,-0.64
2022-12-28T04:02:17.829Z,-0.71
2022-12-28T04:04:46.254Z,-0.70
2022-12-28T04:07:14.161Z,-1.38
2022-12-28T04:09:42.150Z,-1.54
2022-12-28T04:12:12.491Z,-1.35
2022-12-28T04:14:41.694Z,-2.03
2022-12-28T04:17:09.623Z,-1.33
2022-12-28T04:19:38.209Z,-0.81
2022-12-28T04:22:06.206Z,-0.35
2022-12-28T04:24:35.753Z,-0.90
2022-12-28T04:27:04.230Z,-0.63
2022-12-28T04:29:32.531Z,-1.03
2022-12-28T04:32:00.812Z,-0.39
2022-12-28T04:34:29.280Z,-0.39
2022-12-28T04:36:57.652Z,-0.39
2022-12-28T04:39:25.680Z,-0.34
2022-12-28T04:41:54.011Z,-0.75
2022-12-28T04:44:21.992Z,-0.19
2022-12-28T04:46:49.885Z,-0.38
2022-12-28T04:49:18.157Z,-1.05
2022-12-28T04:51:46.199Z,-1.45
2022-12-28T04:54:14.657Z,-1.07
2022-12-28T04:56:42.930Z,-0.94
2022-12-28T04:59:11.019Z,-0.99
2022-12-28T05:01:39.111Z,-0.76
2022-12-28T05:04:07.542Z,-0.61
2022-12-28T05:06:35.555Z,-0.21
2022-12-28T05:09:03.593Z,-0.44
2022-12-28T05:11:32.190Z,-0.67
2022-12-28T05:14:00.265Z,-0.43
2022-12-28T05:16:29.090Z,-0.39
2022-12-28T05:18:58.220Z,-0.33
2022-12-28T05:21:27.766Z,-0.34
2022-12-28T05:23:56.530Z,-0.35
2022-12-28T05:26:27.218Z,-0.37
2022-12-28T05:28:56.014Z,-0.54
2022-12-28T05:31:24.768Z,-0.09
2022-12-28T05:33:53.958Z,-0.26
2022-12-28T05:36:24.258Z,-0.42
2022-12-28T05:38:53.797Z,-0.63
2022-12-28T05:41:24.459Z,-0.26
2022-12-28T05:43:52.890Z,-0.30
2022-12-28T05:46:32.876Z,0.00
2022-12-28T05:49:01.984Z,0.68
2022-12-28T05:51:32.068Z,0.48
2022-12-28T05:54:01.175Z,0.44
2022-12-28T05:56:30.510Z,-0.84
2022-12-28T05:59:06.316Z,-1.08
2022-12-28T06:01:38.676Z,-0.47
2022-12-28T06:04:11.215Z,-0.98
2022-12-28T06:06:39.191Z,-0.31
2022-12-28T06:09:07.564Z,-0.63
2022-12-28T06:11:35.629Z,-0.51
2022-12-28T06:14:06.096Z,-1.09
2022-12-28T06:16:40.037Z,-0.65
2022-12-28T06:19:10.167Z,-0.25
2022-12-28T06:21:39.869Z,-0.01
2022-12-28T06:24:08.799Z,0.01
2022-12-28T06:26:38.409Z,-0.77
2022-12-28T06:29:07.019Z,-0.27
2022-12-28T06:31:40.079Z,-0.33
2022-12-28T06:34:09.683Z,-0.39
2022-12-28T06:36:43.468Z,-0.55
2022-12-28T06:39:13.963Z,-1.28
2022-12-28T06:41:42.588Z,-1.12
2022-12-28T06:44:12.657Z,-0.74
2022-12-28T06:46:41.199Z,-0.89
2022-12-28T06:49:09.517Z,-0.73
2022-12-28T06:51:40.760Z,-0.51
2022-12-28T06:54:10.039Z,-0.78
2022-12-28T06:56:38.297Z,-1.06
2022-12-28T06:59:06.993Z,-2.05
2022-12-28T07:01:40.183Z,-1.29
2022-12-28T07:04:09.385Z,-1.22
2022-12-28T07:06:42.843Z,-0.89
2022-12-28T07:09:14.017Z,0.01
2022-12-28T07:11:43.419Z,0.43
2022-12-28T07:14:11.895Z,0.49
2022-12-28T07:19:06.846Z,1.41
2022-12-28T07:21:37.200Z,1.36
2022-12-28T07:24:06.259Z,1.69
2022-12-28T07:26:36.140Z,1.72
2022-12-28T07:29:05.729Z,1.87
2022-12-28T07:31:43.625Z,1.48
2022-12-28T07:34:12.868Z,1.64
2022-12-28T07:36:40.882Z,1.72
2022-12-28T07:39:09.230Z,1.93
2022-12-28T07:41:37.947Z,2.22
2022-12-28T07:44:06.520Z,2.65
2022-12-28T07:46:36.311Z,2.05
2022-12-28T07:49:05.134Z,1.82
2022-12-28T07:51:35.429Z,3.07
2022-12-28T07:54:04.278Z,2.88
2022-12-28T07:59:05.373Z,4.55
2022-12-28T08:01:35.741Z,5.20
2022-12-28T08:04:06.532Z,4.33
2022-12-28T08:06:36.668Z,4.29
2022-12-28T08:09:05.908Z,4.68
2022-12-28T08:11:36.549Z,5.98
2022-12-28T08:14:06.150Z,6.63
2022-12-28T08:16:36.600Z,7.03
2022-12-28T08:19:05.909Z,7.35
2022-12-28T08:21:38.590Z,7.06
2022-12-28T08:24:07.849Z,7.22
2022-12-28T08:26:38.127Z,7.91
2022-12-28T08:29:14.925Z,7.57
2022-12-28T08:31:43.598Z,7.05
2022-12-28T08:34:15.504Z,7.14
2022-12-28T08:36:43.451Z,7.77
2022-12-28T08:39:11.904Z,8.24
2022-12-28T08:41:39.840Z,8.53
2022-12-28T08:44:07.939Z,8.56
2022-12-28T08:46:37.093Z,8.42
2022-12-28T08:49:06.073Z,8.41
2022-12-28T08:51:41.937Z,9.43
2022-12-28T08:54:12.383Z,10.81
2022-12-28T08:56:42.806Z,11.84
2022-12-28T08:59:16.815Z,12.39
2022-12-28T09:01:46.192Z,12.97
2022-12-28T09:04:19.691Z,13.56
2022-12-28T09:06:47.927Z,11.77
2022-12-28T09:09:17.700Z,11.20
2022-12-28T09:11:46.524Z,10.99
2022-12-28T09:14:22.754Z,9.00
2022-12-28T09:16:54.093Z,11.15
2022-12-28T09:19:22.392Z,11.04
2022-12-28T09:21:52.811Z,11.07
2022-12-28T09:24:22.554Z,10.54
2022-12-28T09:26:53.067Z,9.46
2022-12-28T09:29:21.988Z,9.90
2022-12-28T09:31:50.096Z,9.79
2022-12-28T09:37:07.820Z,9.80
2022-12-28T09:39:35.901Z,8.44
2022-12-28T09:42:17.669Z,8.20
2022-12-28T09:45:01.396Z,8.21
2022-12-28T09:47:41.247Z,8.41
2022-12-28T09:50:09.538Z,8.71
2022-12-28T09:52:49.831Z,10.58
2022-12-28T09:55:19.463Z,12.07
2022-12-28T09:57:54.802Z,13.05
2022-12-28T10:00:25.686Z,13.93
2022-12-28T10:03:01.666Z,11.93
2022-12-28T10:05:30.200Z,12.59
2022-12-28T10:07:59.407Z,12.11
2022-12-28T10:10:27.744Z,12.93
2022-12-28T10:12:56.271Z,14.34
2022-12-28T10:15:28.121Z,15.19
2022-12-28T10:17:56.270Z,15.03
2022-12-28T10:20:24.651Z,14.88
2022-12-28T10:22:56.769Z,14.79
2022-12-28T10:25:27.983Z,14.88
2022-12-28T10:27:56.274Z,15.51
2022-12-28T10:30:29.978Z,15.67
2022-12-28T10:33:03.707Z,16.04
2022-12-28T10:35:41.224Z,14.58
2022-12-28T10:38:27.947Z,13.75
2022-12-28T10:41:03.290Z,11.80
2022-12-28T10:43:34.617Z,10.62
2022-12-28T10:46:04.716Z,9.95
2022-12-28T10:48:36.260Z,9.10
2022-12-28T10:51:12.082Z,8.03
2022-12-28T10:53:40.075Z,8.05
2022-12-28T10:56:11.520Z,7.77
2022-12-28T10:58:41.070Z,7.55
2022-12-28T11:01:12.804Z,8.22
2022-12-28T11:03:45.558Z,8.67
2022-12-28T11:06:26.734Z,8.66
2022-12-28T11:09:03.976Z,8.41
2022-12-28T11:11:32.956Z,8.12
2022-12-28T11:14:07.214Z,8.27
2022-12-28T11:16:37.829Z,8.25
2022-12-28T11:19:06.058Z,8.14
2022-12-28T11:21:35.507Z,9.03
2022-12-28T11:24:04.640Z,10.03
2022-12-28T11:26:33.486Z,10.18
2022-12-28T11:29:02.271Z,11.83
2022-12-28T11:31:45.653Z,13.60
2022-12-28T11:34:18.671Z,13.92
2022-12-28T11:36:47.378Z,13.26
2022-12-28T11:39:27.704Z,14.06
2022-12-28T11:42:28.108Z,14.34
2022-12-28T11:44:45.697Z,13.92
2022-12-28T11:47:17.117Z,12.98
2022-12-28T11:49:48.362Z,13.30
2022-12-28T11:52:31.115Z,13.32
2022-12-28T11:55:01.330Z,13.52
2022-12-28T11:57:39.048Z,13.76
2022-12-28T12:00:23.019Z,13.74
2022-12-28T12:02:57.097Z,14.13
2022-12-28T12:05:40.256Z,14.38
2022-12-28T12:08:31.871Z,13.53
2022-12-28T12:11:21.381Z,14.13
2022-12-28T12:13:51.371Z,13.95
2022-12-28T12:16:23.705Z,13.78
2022-12-28T12:18:57.889Z,12.35
2022-12-28T12:21:35.961Z,11.29
2022-12-28T12:24:40.088Z,10.38
2022-12-28T12:27:19.958Z,9.97
2022-12-28T12:29:52.031Z,8.52
2022-12-28T12:47:05.907Z,8.65
2022-12-28T12:49:44.151Z,8.65
2022-12-28T12:52:31.041Z,8.13
2022-12-28T12:55:06.035Z,8.17
2022-12-28T12:57:42.034Z,8.25
2022-12-28T13:00:13.995Z,8.31
2022-12-28T13:02:59.538Z,7.71
2022-12-28T13:05:29.246Z,8.42
2022-12-28T13:07:59.550Z,7.96
2022-12-28T13:10:41.454Z,8.13
2022-12-28T13:13:19.800Z,7.77
2022-12-28T13:15:48.678Z,8.19
2022-12-28T13:18:44.530Z,8.43
2022-12-28T13:21:12.637Z,8.48
2022-12-28T13:23:45.509Z,7.88
2022-12-28T13:26:15.364Z,8.12
2022-12-28T13:29:00.257Z,7.81
2022-12-28T13:31:35.476Z,8.32
2022-12-28T13:34:06.631Z,8.06
2022-12-28T13:36:35.133Z,8.56
2022-12-28T13:39:12.671Z,7.92
2022-12-28T13:41:52.452Z,8.41
2022-12-28T13:44:38.039Z,8.32
2022-12-28T13:47:06.429Z,8.49
2022-12-28T13:49:44.200Z,8.66
2022-12-28T13:52:17.873Z,8.70
2022-12-28T13:54:55.517Z,8.38
2022-12-28T14:00:17.384Z,8.40
2022-12-28T14:02:46.555Z,7.94
2022-12-28T14:05:28.883Z,7.77
2022-12-28T14:07:58.852Z,7.95
2022-12-28T14:10:27.883Z,8.24
2022-12-28T14:12:56.834Z,8.03
2022-12-28T14:15:25.527Z,8.34
2022-12-28T14:17:53.948Z,7.96
2022-12-28T14:20:22.005Z,8.15
2022-12-28T14:22:50.477Z,8.27
2022-12-28T14:25:20.127Z,7.74
2022-12-28T14:27:57.704Z,7.75
2022-12-28T14:30:28.818Z,7.66
2022-12-28T14:32:57.233Z,7.81
2022-12-28T14:35:27.820Z,7.96
2022-12-28T14:37:58.629Z,7.59
2022-12-28T14:40:37.963Z,7.62
2022-12-28T14:43:38.521Z,7.75
2022-12-28T14:46:32.282Z,7.92
2022-12-28T14:49:01.750Z,7.62
2022-12-28T14:51:31.847Z,7.67
2022-12-28T14:54:12.333Z,7.16
2022-12-28T14:56:41.912Z,7.66
2022-12-28T14:59:20.086Z,7.28
2022-12-28T15:01:49.117Z,7.21
2022-12-28T15:04:38.458Z,7.33
2022-12-28T15:07:09.153Z,7.77
2022-12-28T15:09:37.261Z,6.77
2022-12-28T15:12:12.513Z,6.81
2022-12-28T15:14:41.193Z,6.13
2022-12-28T15:17:10.108Z,6.23
2022-12-28T15:19:38.265Z,6.25
2022-12-28T15:22:06.552Z,6.09
2022-12-28T15:24:35.455Z,5.87
2022-12-28T15:27:03.708Z,6.13
2022-12-28T15:32:20.177Z,6.08
2022-12-28T15:34:48.473Z,7.06
2022-12-28T15:37:16.522Z,6.92
2022-12-28T15:39:44.483Z,6.72
2022-12-28T15:42:12.792Z,6.00
2022-12-28T15:44:40.762Z,5.27
2022-12-28T15:47:08.904Z,5.41
2022-12-28T15:49:37.320Z,4.66
2022-12-28T15:52:05.806Z,5.24
2022-12-28T15:54:33.976Z,5.50
2022-12-28T15:57:02.601Z,5.66
2022-12-28T15:59:30.973Z,5.51
2022-12-28T16:01:59.132Z,5.25
2022-12-28T16:04:27.988Z,4.98
2022-12-28T16:06:56.930Z,5.08
2022-12-28T16:09:24.979Z,5.51
2022-12-28T16:11:55.285Z,5.54
2022-12-28T16:14:23.913Z,5.73
2022-12-28T16:16:51.949Z,5.33
2022-12-28T16:19:20.397Z,5.26
2022-12-28T16:21:51.576Z,5.66
2022-12-28T16:24:21.764Z,5.58
2022-12-28T16:26:50.102Z,5.51
2022-12-28T16:29:18.260Z,5.79
2022-12-28T16:31:46.447Z,5.32
2022-12-28T16:34:23.558Z,5.48
2022-12-28T16:36:57.206Z,5.45
2022-12-28T16:39:28.564Z,4.86
2022-12-28T16:41:58.337Z,4.83
2022-12-28T16:44:28.027Z,5.02
2022-12-28T16:46:58.675Z,5.39
2022-12-28T16:49:27.938Z,5.18
2022-12-28T16:51:56.354Z,5.00
2022-12-28T16:54:26.567Z,5.11
2022-12-28T16:56:55.372Z,5.20
2022-12-28T16:59:25.920Z,5.05
2022-12-28T17:01:56.174Z,5.33
2022-12-28T17:04:24.586Z,5.41
2022-12-28T17:06:53.115Z,5.25
2022-12-28T17:09:21.866Z,5.42
2022-12-28T17:11:50.987Z,5.30
2022-12-28T17:17:07.836Z,5.31
2022-12-28T17:19:36.026Z,5.51
2022-12-28T17:22:04.881Z,5.84
2022-12-28T17:24:33.367Z,5.63
2022-12-28T17:27:07.495Z,5.17
2022-12-28T17:29:37.891Z,5.42
2022-12-28T17:32:06.631Z,5.23
2022-12-28T17:34:35.055Z,4.78
2022-12-28T17:37:04.125Z,4.65
2022-12-28T17:39:39.426Z,3.91
2022-12-28T17:42:09.613Z,3.63
2022-12-28T17:44:38.181Z,3.62
2022-12-28T17:47:06.278Z,3.49
2022-12-28T17:49:34.758Z,3.38
2022-12-28T17:52:02.963Z,3.71
2022-12-28T17:54:31.079Z,3.80
2022-12-28T17:57:00.178Z,3.67
2022-12-28T17:59:28.242Z,3.27
2022-12-28T18:01:56.920Z,3.17
2022-12-28T18:04:25.621Z,2.78
2022-12-28T18:06:53.565Z,2.84
2022-12-28T18:09:27.336Z,3.05
2022-12-28T18:11:56.123Z,3.20
2022-12-28T18:14:25.127Z,2.89
2022-12-28T18:16:53.918Z,2.81
2022-12-28T18:19:22.417Z,2.96
2022-12-28T18:21:50.481Z,2.64
2022-12-28T18:24:21.101Z,2.79
2022-12-28T18:26:49.711Z,3.14
2022-12-28T18:29:17.716Z,2.88
2022-12-28T18:31:45.727Z,2.56
2022-12-28T18:34:14.683Z,2.45
2022-12-28T18:36:42.677Z,2.58
2022-12-28T18:39:10.698Z,2.80
2022-12-28T18:41:39.088Z,3.03
2022-12-28T18:44:07.009Z,2.44
2022-12-28T18:46:37.629Z,2.22
2022-12-28T18:49:06.055Z,2.42
2022-12-28T18:51:34.064Z,2.27
2022-12-28T18:54:02.011Z,2.18
2022-12-28T18:56:30.567Z,2.16
2022-12-28T18:58:59.215Z,2.39
2022-12-28T19:04:17.818Z,3.02
2022-12-28T19:06:46.050Z,2.90
2022-12-28T19:09:14.277Z,2.20
2022-12-28T19:11:43.097Z,2.10
2022-12-28T19:14:13.340Z,2.34
2022-12-28T19:16:42.225Z,1.88
2022-12-28T19:19:12.110Z,2.09
2022-12-28T19:21:41.366Z,1.48
2022-12-28T19:24:19.188Z,1.76
2022-12-28T19:26:47.760Z,1.86
2022-12-28T19:29:16.613Z,1.57
2022-12-28T19:31:44.679Z,2.16
2022-12-28T19:34:12.977Z,2.54
2022-12-28T19:36:40.960Z,1.88
2022-12-28T19:39:08.883Z,1.32
2022-12-28T19:41:37.100Z,1.27
2022-12-28T19:44:05.262Z,2.23
2022-12-28T19:46:33.406Z,1.70
2022-12-28T19:49:04.075Z,1.65
2022-12-28T19:51:33.038Z,1.38
2022-12-28T19:54:02.154Z,1.51
2022-12-28T19:56:30.196Z,1.82
2022-12-28T19:59:05.436Z,1.49
2022-12-28T20:01:37.160Z,1.33
2022-12-28T20:04:13.325Z,0.80
2022-12-28T20:06:44.026Z,1.50
2022-12-28T20:09:13.537Z,0.80
2022-12-28T20:11:42.283Z,1.45
2022-12-28T20:14:12.334Z,1.31
2022-12-28T20:16:40.634Z,0.79
2022-12-28T20:19:10.614Z,0.07
2022-12-28T20:21:42.126Z,0.34
2022-12-28T20:24:12.180Z,0.61
2022-12-28T20:26:40.900Z,-0.06
2022-12-28T20:29:09.087Z,0.72
2022-12-28T20:31:37.564Z,0.29
2022-12-28T20:34:06.300Z,0.11
2022-12-28T20:36:34.588Z,0.47
2022-12-28T20:39:03.421Z,1.10
2022-12-28T20:41:51.234Z,0.62
2022-12-28T20:44:28.438Z,0.52
2022-12-28T20:46:57.803Z,1.04
2022-12-28T20:49:27.070Z,0.97
2022-12-28T20:51:55.404Z,0.11
2022-12-28T20:54:23.789Z,0.16
2022-12-28T20:56:55.821Z,0.87
2022-12-28T20:59:26.016Z,0.47
2022-12-28T21:01:55.017Z,0.97
2022-12-28T21:04:24.795Z,1.32
2022-12-28T21:06:54.495Z,1.03
2022-12-28T21:09:23.191Z,0.69
2022-12-28T21:11:51.336Z,0.98
2022-12-28T21:14:19.659Z,0.93
2022-12-28T21:16:48.196Z,0.77
2022-12-28T21:19:16.407Z,0.65
2022-12-28T21:21:44.729Z,0.71
2022-12-28T21:24:13.068Z,0.66
2022-12-28T21:26:41.025Z,0.02
2022-12-28T21:29:09.149Z,-0.48
2022-12-28T21:31:37.463Z,-0.10
2022-12-28T21:34:05.398Z,0.77
2022-12-28T21:36:33.320Z,0.80
2022-12-28T21:39:01.560Z,0.83
2022-12-28T21:42:04.847Z,0.69
2022-12-28T21:44:33.119Z,0.47
2022-12-28T21:47:01.039Z,0.63
2022-12-28T21:49:29.031Z,0.25
2022-12-28T21:51:59.798Z,0.77
2022-12-28T21:54:27.918Z,0.42
2022-12-28T21:56:57.207Z,0.33
2022-12-28T21:59:26.408Z,0.13
2022-12-28T22:02:13.343Z,-0.22
2022-12-28T22:05:03.286Z,-0.35
2022-12-28T22:07:32.192Z,-0.41
2022-12-28T22:10:19.235Z,-0.27
2022-12-28T22:12:47.947Z,-0.04
2022-12-28T22:15:39.558Z,-0.36
2022-12-28T22:21:16.614Z,-0.04
2022-12-28T22:23:44.521Z,-0.41
2022-12-28T22:26:12.518Z,-0.18
2022-12-28T22:28:40.709Z,-1.08
2022-12-28T22:31:09.220Z,-0.42
2022-12-28T22:33:37.175Z,-0.28
2022-12-28T22:36:16.858Z,0.48
2022-12-28T22:38:45.135Z,0.52
2022-12-28T22:41:13.528Z,0.74
2022-12-28T22:43:41.582Z,0.80
2022-12-28T22:46:11.501Z,0.88
2022-12-28T22:48:39.930Z,0.08
2022-12-28T22:51:10.211Z,-0.19
2022-12-28T22:53:38.477Z,-0.16
2022-12-28T22:56:11.807Z,0.29
2022-12-28T22:58:39.687Z,0.10
2022-12-28T23:01:10.430Z,0.02
2022-12-28T23:03:42.466Z,0.30
2022-12-28T23:06:12.897Z,0.57
2022-12-28T23:08:41.087Z,-0.03
2022-12-28T23:11:30.849Z,0.12
2022-12-28T23:14:22.548Z,0.80
2022-12-28T23:16:50.464Z,0.11
2022-12-28T23:19:37.562Z,0.21
2022-12-28T23:22:25.337Z,0.08
2022-12-28T23:25:12.225Z,0.09
2022-12-28T23:27:41.596Z,0.51
2022-12-28T23:30:17.802Z,0.36
2022-12-28T23:32:50.303Z,0.01
2022-12-28T23:35:19.327Z,0.20
2022-12-28T23:37:47.572Z,0.81
2022-12-28T23:40:17.731Z,0.21
2022-12-28T23:42:46.701Z,-0.24
2022-12-28T23:45:16.862Z,-0.27
2022-12-28T23:47:45.867Z,0.61
2022-12-28T23:50:15.737Z,0.40
2022-12-28T23:52:43.725Z,0.75
2022-12-28T23:55:12.265Z,0.71
2022-12-28T23:57:40.651Z,0.42
